Time;durP1;ratioP1;P1;durP2;ratioP2;P2;SDS_P1;SDS_P2;PMS_P1;PMS_P2;Temp;Humidity;BMP_temperature;BMP_pressure;BME280_temperature;BME280_humidity;BME280_pressure;Samples;Min_cycle;Max_cycle;Signal;HPM_P1;HPM_P2
2022/06/18 00:01:33;;;;;;;;;10.60;10.60;;;;;;;;4978687;28;8810;-64
2022/06/18 00:04:02;;;;;;;;;11.60;10.80;;;;;;;;4979421;28;8752;-71
2022/06/18 00:06:29;;;;;;;;;7.40;7.40;;;;;;;;4978016;28;8767;-70
2022/06/18 00:08:56;;;;;;;;;10.20;8.80;;;;;;;;4978465;28;8775;-71
2022/06/18 00:14:08;;;;;;;;;10.80;8.00;;;;;;;;4978074;28;8772;-67
2022/06/18 00:16:35;;;;;;;;;9.00;7.20;;;;;;;;4978505;28;8950;-71
2022/06/18 00:19:01;;;;;;;;;9.40;8.40;;;;;;;;4979070;28;8784;-70
2022/06/18 00:21:28;;;;;;;;;7.60;7.60;;;;;;;;4961233;28;8831;-72
2022/06/18 00:23:55;;;;;;;;;9.20;9.00;;;;;;;;4978758;28;8806;-70
2022/06/18 00:26:22;;;;;;;;;10.80;8.00;;;;;;;;4978487;28;8791;-69
2022/06/18 00:28:49;;;;;;;;;13.20;8.00;;;;;;;;4978763;28;9429;-69
2022/06/18 00:31:15;;;;;;;;;8.60;6.40;;;;;;;;4979305;28;8772;-68
2022/06/18 00:33:42;;;;;;;;;7.60;7.60;;;;;;;;4961659;28;8811;-73
2022/06/18 00:36:18;;;;;;;;;8.00;7.60;;;;;;;;4979177;28;8798;-71
2022/06/18 00:38:45;;;;;;;;;7.00;7.00;;;;;;;;4978280;28;8795;-65
2022/06/18 00:41:15;;;;;;;;;12.00;9.60;;;;;;;;4978188;28;8819;-67
2022/06/18 00:43:42;;;;;;;;;12.80;12.80;;;;;;;;4960648;28;8791;-72
2022/06/18 00:46:38;;;;;;;;;9.40;8.80;;;;;;;;4961626;28;8851;-72
2022/06/18 00:49:11;;;;;;;;;11.20;8.80;;;;;;;;4962215;28;8788;-65
2022/06/18 00:51:37;;;;;;;;;8.40;8.00;;;;;;;;4977829;28;8928;-71
2022/06/18 00:54:30;;;;;;;;;9.00;9.00;;;;;;;;4960658;28;8774;-71
2022/06/18 00:57:00;;;;;;;;;10.80;8.00;;;;;;;;4974718;28;8858;-69
2022/06/18 00:59:44;;;;;;;;;8.80;7.60;;;;;;;;4977866;28;8898;-71
2022/06/18 01:02:17;;;;;;;;;10.80;9.80;;;;;;;;4960998;28;9060;-72
2022/06/18 01:04:44;;;;;;;;;7.20;6.60;;;;;;;;4960845;28;11344;-67
2022/06/18 01:07:19;;;;;;;;;5.40;5.40;;;;;;;;4978452;28;8748;-72
2022/06/18 01:09:46;;;;;;;;;7.80;6.00;;;;;;;;4977944;28;8777;-72
2022/06/18 01:12:12;;;;;;;;;7.00;6.20;;;;;;;;4960789;28;8775;-71
2022/06/18 01:14:39;;;;;;;;;7.80;6.40;;;;;;;;4977381;28;8807;-59
2022/06/18 01:17:06;;;;;;;;;6.00;6.00;;;;;;;;4980477;28;8783;-59
2022/06/18 01:19:33;;;;;;;;;5.00;5.00;;;;;;;;4981168;28;8899;-71
2022/06/18 01:22:18;;;;;;;;;4.40;4.00;;;;;;;;4981942;28;8783;-64
2022/06/18 01:24:45;;;;;;;;;7.00;7.00;;;;;;;;4981298;28;8838;-63
2022/06/18 01:27:12;;;;;;;;;7.00;7.00;;;;;;;;4980078;28;8813;-72
2022/06/18 01:29:38;;;;;;;;;6.60;5.60;;;;;;;;4981042;28;8838;-72
2022/06/18 01:32:06;;;;;;;;;8.40;8.00;;;;;;;;4981181;28;8788;-72
2022/06/18 01:34:33;;;;;;;;;6.40;5.60;;;;;;;;4980504;28;9474;-63
2022/06/18 01:37:00;;;;;;;;;7.00;7.00;;;;;;;;4981582;28;8791;-70
2022/06/18 01:39:27;;;;;;;;;9.20;8.60;;;;;;;;4945674;28;8820;-59
2022/06/18 01:41:58;;;;;;;;;6.80;6.80;;;;;;;;4942591;28;8809;-66
2022/06/18 01:44:43;;;;;;;;;8.00;6.80;;;;;;;;4957654;28;9613;-70
2022/06/18 01:47:11;;;;;;;;;8.20;7.00;;;;;;;;4923469;29;8790;-66
2022/06/18 01:49:43;;;;;;;;;9.00;8.20;;;;;;;;4922012;29;8852;-68
2022/06/18 01:52:09;;;;;;;;;11.00;9.00;;;;;;;;4923025;29;8776;-70
2022/06/18 01:54:43;;;;;;;;;8.80;8.00;;;;;;;;4923086;29;8780;-64
2022/06/18 01:57:14;;;;;;;;;6.80;6.80;;;;;;;;4922158;29;8854;-70
2022/06/18 01:59:43;;;;;;;;;5.80;5.60;;;;;;;;4924971;29;8804;-72
2022/06/18 02:02:09;;;;;;;;;5.60;5.60;;;;;;;;4957064;28;8793;-68
2022/06/18 02:04:36;;;;;;;;;7.40;7.40;;;;;;;;4940934;28;8801;-62
2022/06/18 02:07:04;;;;;;;;;8.00;7.20;;;;;;;;4943000;29;9459;-70
2022/06/18 02:09:43;;;;;;;;;7.60;6.80;;;;;;;;4941742;28;8773;-62
2022/06/18 02:12:14;;;;;;;;;10.80;7.40;;;;;;;;4941965;28;8785;-70
2022/06/18 02:14:41;;;;;;;;;7.20;7.20;;;;;;;;4940346;28;8785;-65
2022/06/18 02:17:09;;;;;;;;;8.00;7.20;;;;;;;;4956736;28;8789;-66
2022/06/18 02:19:36;;;;;;;;;10.80;9.00;;;;;;;;4956066;28;8790;-68
2022/06/18 02:22:03;;;;;;;;;7.60;6.00;;;;;;;;4956894;28;8881;-61
2022/06/18 02:24:29;;;;;;;;;10.00;7.60;;;;;;;;4955994;28;8774;-70
2022/06/18 02:26:56;;;;;;;;;8.60;6.40;;;;;;;;4940808;28;9016;-63
2022/06/18 02:29:27;;;;;;;;;9.60;8.00;;;;;;;;4955617;28;8923;-66
2022/06/18 02:31:53;;;;;;;;;8.40;7.80;;;;;;;;4940375;29;8796;-68
2022/06/18 02:34:21;;;;;;;;;8.60;8.00;;;;;;;;4941801;28;8820;-67
2022/06/18 02:36:48;;;;;;;;;9.20;8.00;;;;;;;;4941593;28;8805;-72
2022/06/18 02:39:14;;;;;;;;;4.00;2.00;;;;;;;;4967033;28;8807;-61
2022/06/18 02:41:41;;;;;;;;;8.60;7.80;;;;;;;;4979762;28;8780;-63
2022/06/18 02:44:08;;;;;;;;;11.00;8.00;;;;;;;;4963030;28;8771;-69
2022/06/18 02:46:34;;;;;;;;;9.80;9.40;;;;;;;;4980214;28;8763;-67
2022/06/18 02:49:03;;;;;;;;;7.40;7.00;;;;;;;;4963109;28;8898;-68
2022/06/18 02:51:32;;;;;;;;;7.60;6.80;;;;;;;;4979440;28;8794;-70
2022/06/18 02:53:59;;;;;;;;;8.20;6.80;;;;;;;;4979631;28;8771;-60
2022/06/18 02:56:26;;;;;;;;;6.00;6.00;;;;;;;;4979361;28;8767;-70
2022/06/18 02:58:52;;;;;;;;;8.00;8.00;;;;;;;;4980349;28;8755;-69
2022/06/18 03:01:24;;;;;;;;;6.80;6.80;;;;;;;;4959042;28;8841;-66
2022/06/18 03:03:58;;;;;;;;;8.00;8.00;;;;;;;;4959903;28;9186;-70
2022/06/18 03:06:25;;;;;;;;;3.00;3.00;;;;;;;;4959682;28;8864;-61
2022/06/18 03:08:52;;;;;;;;;7.60;6.00;;;;;;;;4958954;28;9550;-66
2022/06/18 03:14:05;;;;;;;;;7.00;7.00;;;;;;;;4959814;28;8769;-67
2022/06/18 03:16:32;;;;;;;;;8.40;8.20;;;;;;;;4976281;28;8894;-69
2022/06/18 03:18:59;;;;;;;;;7.80;7.80;;;;;;;;4980002;28;8763;-67
2022/06/18 03:21:31;;;;;;;;;10.80;8.40;;;;;;;;4977708;28;8831;-69
2022/06/18 03:23:58;;;;;;;;;9.00;8.00;;;;;;;;4979063;28;9387;-66
2022/06/18 03:26:25;;;;;;;;;10.40;9.00;;;;;;;;4978833;28;8897;-70
2022/06/18 03:28:54;;;;;;;;;9.60;8.00;;;;;;;;4961546;28;8756;-69
2022/06/18 03:31:21;;;;;;;;;10.20;10.20;;;;;;;;4958483;28;8856;-60
2022/06/18 03:33:47;;;;;;;;;12.00;12.00;;;;;;;;4958204;28;8770;-70
2022/06/18 03:36:14;;;;;;;;;13.80;11.60;;;;;;;;4958565;28;8765;-68
2022/06/18 03:38:41;;;;;;;;;11.20;11.20;;;;;;;;4954401;28;9479;-69
2022/06/18 03:41:08;;;;;;;;;8.80;8.00;;;;;;;;4922703;28;8855;-72
2022/06/18 03:43:34;;;;;;;;;12.20;9.80;;;;;;;;4964857;28;8774;-71
2022/06/18 03:46:07;;;;;;;;;14.00;12.80;;;;;;;;4951682;28;8779;-61
2022/06/18 03:48:46;;;;;;;;;12.80;11.80;;;;;;;;4958827;28;8909;-70
2022/06/18 03:51:13;;;;;;;;;16.20;12.00;;;;;;;;4957943;28;8789;-72
2022/06/18 03:53:40;;;;;;;;;11.80;11.00;;;;;;;;4959207;28;8791;-68
2022/06/18 03:56:07;;;;;;;;;11.60;10.80;;;;;;;;4959364;28;8817;-57
2022/06/18 03:58:34;;;;;;;;;12.80;9.80;;;;;;;;4957727;28;9514;-58
2022/06/18 04:01:01;;;;;;;;;14.40;14.20;;;;;;;;4959517;28;8823;-71
2022/06/18 04:03:27;;;;;;;;;14.20;8.80;;;;;;;;4958931;28;8905;-70
2022/06/18 04:05:54;;;;;;;;;12.80;12.40;;;;;;;;4959114;28;8782;-54
2022/06/18 04:08:21;;;;;;;;;17.00;15.00;;;;;;;;4973372;28;8779;-57
2022/06/18 04:10:48;;;;;;;;;7.00;5.80;;;;;;;;4959216;28;8775;-56
2022/06/18 04:13:15;;;;;;;;;15.20;14.20;;;;;;;;4959756;28;8853;-64
2022/06/18 04:15:41;;;;;;;;;17.00;16.40;;;;;;;;4958773;28;9324;-72
2022/06/18 04:18:08;;;;;;;;;16.60;15.00;;;;;;;;4959047;28;8972;-71
2022/06/18 04:20:35;;;;;;;;;15.20;11.20;;;;;;;;4957686;29;8849;-57
2022/06/18 04:23:02;;;;;;;;;16.20;15.20;;;;;;;;4958909;28;8790;-63
2022/06/18 04:25:29;;;;;;;;;15.40;14.00;;;;;;;;4957572;28;8783;-62
2022/06/18 04:27:58;;;;;;;;;19.00;14.00;;;;;;;;4974357;28;8755;-67
2022/06/18 04:30:26;;;;;;;;;23.00;18.80;;;;;;;;4957338;28;8810;-62
2022/06/18 04:32:53;;;;;;;;;19.40;16.60;;;;;;;;4958837;28;8818;-52
2022/06/18 04:35:20;;;;;;;;;18.80;17.60;;;;;;;;4958694;28;8833;-59
2022/06/18 04:37:48;;;;;;;;;23.50;18.75;;;;;;;;4974466;28;8851;-63
2022/06/18 04:40:31;;;;;;;;;20.40;15.80;;;;;;;;4978883;28;8755;-72
2022/06/18 04:43:07;;;;;;;;;18.60;15.80;;;;;;;;4961008;28;8800;-64
2022/06/18 04:45:34;;;;;;;;;18.20;17.80;;;;;;;;4960117;28;8759;-71
2022/06/18 04:48:01;;;;;;;;;22.60;18.00;;;;;;;;4977883;28;8818;-59
2022/06/18 04:50:29;;;;;;;;;18.60;15.60;;;;;;;;4960944;28;8806;-65
2022/06/18 04:52:55;;;;;;;;;17.60;16.60;;;;;;;;4981942;28;8779;-70
2022/06/18 04:55:22;;;;;;;;;17.00;16.00;;;;;;;;4982117;28;8767;-61
2022/06/18 04:57:49;;;;;;;;;17.60;15.40;;;;;;;;4981622;28;8787;-68
2022/06/18 05:00:15;;;;;;;;;17.20;15.40;;;;;;;;4961045;28;8769;-69
2022/06/18 05:02:42;;;;;;;;;15.40;13.20;;;;;;;;4962290;28;8786;-67
2022/06/18 05:05:11;;;;;;;;;19.60;17.40;;;;;;;;4962377;28;8772;-67
2022/06/18 05:07:38;;;;;;;;;19.80;17.20;;;;;;;;4976972;28;8836;-69
2022/06/18 05:10:05;;;;;;;;;19.20;17.80;;;;;;;;4962952;28;8738;-72
2022/06/18 05:12:31;;;;;;;;;19.20;16.40;;;;;;;;4976791;28;9169;-69
2022/06/18 05:14:58;;;;;;;;;18.00;17.80;;;;;;;;4965959;28;8818;-59
2022/06/18 05:17:29;;;;;;;;;18.20;15.20;;;;;;;;4981202;28;8786;-68
2022/06/18 05:19:56;;;;;;;;;20.00;16.00;;;;;;;;4981466;28;8760;-72
2022/06/18 05:22:23;;;;;;;;;15.40;14.60;;;;;;;;4981655;28;8818;-65
2022/06/18 05:24:49;;;;;;;;;17.60;17.00;;;;;;;;4964319;28;8767;-66
2022/06/18 05:27:20;;;;;;;;;16.00;14.20;;;;;;;;4981147;28;8789;-72
2022/06/18 05:29:47;;;;;;;;;19.60;16.40;;;;;;;;4979974;28;8772;-71
2022/06/18 05:32:13;;;;;;;;;18.00;16.00;;;;;;;;4981488;28;8841;-55
2022/06/18 05:34:40;;;;;;;;;11.80;11.00;;;;;;;;4981058;28;8794;-71
2022/06/18 05:37:17;;;;;;;;;14.60;13.80;;;;;;;;4981744;28;8735;-66
2022/06/18 05:39:44;;;;;;;;;14.60;14.20;;;;;;;;4963704;28;8791;-72
2022/06/18 05:42:10;;;;;;;;;11.60;11.20;;;;;;;;4963787;28;8811;-72
2022/06/18 05:44:37;;;;;;;;;13.60;12.80;;;;;;;;4980683;28;8787;-72
2022/06/18 05:47:10;;;;;;;;;11.60;9.40;;;;;;;;4981276;28;8783;-71
2022/06/18 05:49:37;;;;;;;;;14.20;11.40;;;;;;;;4979628;28;8831;-65
2022/06/18 05:52:04;;;;;;;;;12.40;12.40;;;;;;;;4964088;28;8803;-72
2022/06/18 05:54:30;;;;;;;;;14.40;13.60;;;;;;;;4979587;28;8841;-71
2022/06/18 05:56:57;;;;;;;;;17.60;11.00;;;;;;;;4980995;28;8887;-69
2022/06/18 05:59:23;;;;;;;;;13.00;12.20;;;;;;;;4980743;28;8756;-65
2022/06/18 06:01:50;;;;;;;;;15.20;11.80;;;;;;;;4980034;28;8767;-72
2022/06/18 06:04:19;;;;;;;;;11.80;11.20;;;;;;;;4981667;28;8760;-71
2022/06/18 06:06:46;;;;;;;;;12.00;12.00;;;;;;;;4981045;28;8771;-72
2022/06/18 06:11:28;;;;;;;;;11.40;11.00;;;;;;;;4980864;28;8767;-65
2022/06/18 06:12:00;;;;;;;;;12.60;12.60;;;;;;;;4980549;28;8822;-71
2022/06/18 06:14:26;;;;;;;;;10.20;9.20;;;;;;;;4963189;28;8783;-72
2022/06/18 06:16:53;;;;;;;;;13.00;11.20;;;;;;;;4963330;28;9441;-63
2022/06/18 06:19:20;;;;;;;;;15.60;12.60;;;;;;;;4980011;28;8803;-71
2022/06/18 06:21:46;;;;;;;;;11.00;11.00;;;;;;;;4980270;28;8795;-72
2022/06/18 06:24:13;;;;;;;;;12.40;12.00;;;;;;;;4980462;28;9518;-66
2022/06/18 06:26:40;;;;;;;;;18.60;16.00;;;;;;;;4979816;28;8831;-63
2022/06/18 06:29:07;;;;;;;;;13.20;13.00;;;;;;;;4980337;28;8772;-70
2022/06/18 06:31:34;;;;;;;;;19.00;13.60;;;;;;;;4979564;28;8782;-68
2022/06/18 06:34:01;;;;;;;;;15.20;14.60;;;;;;;;4980560;28;8779;-61
2022/06/18 06:36:27;;;;;;;;;15.60;13.00;;;;;;;;4979865;28;9142;-71
2022/06/18 06:38:54;;;;;;;;;16.40;12.80;;;;;;;;4955736;28;8825;-72
2022/06/18 06:41:22;;;;;;;;;15.00;14.40;;;;;;;;4941143;28;8797;-66
2022/06/18 06:43:49;;;;;;;;;13.60;10.20;;;;;;;;4940884;29;8770;-69
2022/06/18 06:46:16;;;;;;;;;17.00;14.20;;;;;;;;4941720;29;8816;-71
2022/06/18 06:48:43;;;;;;;;;15.20;13.00;;;;;;;;4941107;29;8856;-66
2022/06/18 06:51:14;;;;;;;;;18.80;13.60;;;;;;;;4955775;29;9469;-69
2022/06/18 06:53:40;;;;;;;;;14.20;14.00;;;;;;;;4955612;29;8785;-69
2022/06/18 06:58:54;;;;;;;;;14.00;12.40;;;;;;;;4940773;29;9391;-72
2022/06/18 07:01:21;;;;;;;;;15.80;15.00;;;;;;;;4941193;28;9016;-70
2022/06/18 07:03:48;;;;;;;;;11.20;9.80;;;;;;;;4955703;28;8781;-66
2022/06/18 07:06:16;;;;;;;;;12.40;11.20;;;;;;;;4940907;29;8804;-71
2022/06/18 07:08:46;;;;;;;;;16.20;13.80;;;;;;;;4940772;29;8804;-66
2022/06/18 07:11:13;;;;;;;;;15.00;14.20;;;;;;;;4940717;29;8808;-71
2022/06/18 07:13:40;;;;;;;;;15.80;13.00;;;;;;;;4940274;29;8770;-72
2022/06/18 07:16:07;;;;;;;;;17.40;13.80;;;;;;;;4941208;29;8762;-68
2022/06/18 07:18:35;;;;;;;;;15.40;14.40;;;;;;;;4940821;29;9517;-68
2022/06/18 07:21:05;;;;;;;;;16.60;13.60;;;;;;;;4940143;29;9546;-69
2022/06/18 07:23:31;;;;;;;;;14.60;13.40;;;;;;;;4940410;29;8789;-69
2022/06/18 07:25:58;;;;;;;;;13.40;12.40;;;;;;;;4940684;29;8765;-69
2022/06/18 07:28:25;;;;;;;;;11.40;11.00;;;;;;;;4940374;29;8785;-68
2022/06/18 07:30:52;;;;;;;;;13.80;13.80;;;;;;;;4941729;29;8782;-68
2022/06/18 07:33:22;;;;;;;;;17.20;14.60;;;;;;;;4940960;29;8782;-68
2022/06/18 07:35:49;;;;;;;;;14.40;11.20;;;;;;;;4940425;29;8785;-70
2022/06/18 07:38:15;;;;;;;;;16.40;13.00;;;;;;;;4949354;28;8795;-67
2022/06/18 07:40:44;;;;;;;;;16.60;13.80;;;;;;;;4961899;28;9436;-69
2022/06/18 07:43:10;;;;;;;;;15.60;14.60;;;;;;;;4979990;28;8760;-71
2022/06/18 07:45:37;;;;;;;;;16.20;15.20;;;;;;;;4978848;28;8862;-64
2022/06/18 07:48:04;;;;;;;;;16.60;14.60;;;;;;;;4979725;28;8814;-71
2022/06/18 07:50:30;;;;;;;;;13.00;11.60;;;;;;;;4979306;28;8787;-65
2022/06/18 07:52:57;;;;;;;;;16.80;15.40;;;;;;;;4979154;28;8767;-69
2022/06/18 07:55:24;;;;;;;;;15.80;15.60;;;;;;;;4978979;28;8771;-70
2022/06/18 07:57:51;;;;;;;;;16.40;14.40;;;;;;;;4979097;28;8786;-65
2022/06/18 08:00:19;;;;;;;;;16.80;14.80;;;;;;;;4978624;28;8772;-71
2022/06/18 08:02:46;;;;;;;;;17.20;17.20;;;;;;;;4961790;28;8779;-69
2022/06/18 08:05:13;;;;;;;;;15.80;13.80;;;;;;;;4978808;28;8780;-70
2022/06/18 08:07:40;;;;;;;;;16.00;14.40;;;;;;;;4961287;28;8775;-68
2022/06/18 08:10:07;;;;;;;;;18.00;13.00;;;;;;;;4979339;28;8764;-68
2022/06/18 08:12:33;;;;;;;;;14.00;14.00;;;;;;;;4978446;28;8782;-71
2022/06/18 08:15:01;;;;;;;;;11.00;10.60;;;;;;;;4978546;28;8823;-68
2022/06/18 08:17:28;;;;;;;;;15.80;13.00;;;;;;;;4978548;28;8803;-69
2022/06/18 08:19:54;;;;;;;;;15.20;14.80;;;;;;;;4978969;28;8756;-70
2022/06/18 08:22:22;;;;;;;;;15.60;11.00;;;;;;;;4979364;28;8780;-67
2022/06/18 08:24:49;;;;;;;;;15.00;14.00;;;;;;;;4978717;28;8783;-71
2022/06/18 08:27:16;;;;;;;;;19.80;15.80;;;;;;;;4982008;28;8763;-66
2022/06/18 08:29:43;;;;;;;;;16.80;14.20;;;;;;;;4982442;28;8791;-61
2022/06/18 08:32:10;;;;;;;;;14.40;13.60;;;;;;;;4982633;28;8767;-72
2022/06/18 08:34:36;;;;;;;;;16.00;13.60;;;;;;;;4982701;28;9351;-64
2022/06/18 08:37:04;;;;;;;;;14.80;13.00;;;;;;;;4983884;28;8802;-72
2022/06/18 08:39:30;;;;;;;;;16.20;12.00;;;;;;;;4982658;28;8791;-60
2022/06/18 08:42:16;;;;;;;;;15.00;12.20;;;;;;;;4965309;28;8799;-64
2022/06/18 08:44:42;;;;;;;;;12.40;12.40;;;;;;;;4982322;28;8822;-58
2022/06/18 08:47:18;;;;;;;;;14.20;13.20;;;;;;;;4964962;28;8744;-70
2022/06/18 08:50:20;;;;;;;;;14.40;13.00;;;;;;;;4982496;28;8795;-64
2022/06/18 08:52:47;;;;;;;;;13.60;12.40;;;;;;;;4888006;29;8898;-72
2022/06/18 08:55:25;;;;;;;;;15.00;13.40;;;;;;;;4967602;28;8862;-60
2022/06/18 08:58:11;;;;;;;;;17.20;16.20;;;;;;;;4983702;28;8744;-66
2022/06/18 09:00:44;;;;;;;;;17.00;12.40;;;;;;;;4981932;28;8787;-69
2022/06/18 09:03:17;;;;;;;;;18.50;15.00;;;;;;;;4981778;28;8767;-59
2022/06/18 09:06:07;;;;;;;;;15.60;14.60;;;;;;;;4964484;28;8759;-72
2022/06/18 09:08:36;;;;;;;;;15.60;14.80;;;;;;;;4971496;28;8767;-72
2022/06/18 09:11:03;;;;;;;;;19.00;15.80;;;;;;;;4981716;28;8771;-71
2022/06/18 09:13:40;;;;;;;;;23.80;19.40;;;;;;;;4981296;28;8783;-68
2022/06/18 09:16:11;;;;;;;;;20.75;19.25;;;;;;;;4965200;28;8791;-71
2022/06/18 09:18:46;;;;;;;;;24.20;16.20;;;;;;;;4964271;28;8803;-73
2022/06/18 09:21:14;;;;;;;;;19.80;17.00;;;;;;;;4980549;28;8799;-66
2022/06/18 09:23:42;;;;;;;;;17.20;14.80;;;;;;;;4964096;28;8801;-63
2022/06/18 09:26:12;;;;;;;;;16.40;13.80;;;;;;;;4980192;28;8775;-49
2022/06/18 09:28:41;;;;;;;;;14.00;11.60;;;;;;;;4980275;28;8846;-48
2022/06/18 09:31:10;;;;;;;;;17.40;14.80;;;;;;;;4980769;28;8764;-63
2022/06/18 09:33:50;;;;;;;;;16.40;14.60;;;;;;;;4980902;28;8784;-60
2022/06/18 09:36:24;;;;;;;;;15.40;15.00;;;;;;;;4963386;28;9460;-71
2022/06/18 09:38:58;;;;;;;;;15.00;13.20;;;;;;;;4957184;28;8809;-72
2022/06/18 09:41:26;;;;;;;;;17.00;13.60;;;;;;;;4942236;29;8856;-71
2022/06/18 09:44:04;;;;;;;;;20.60;16.40;;;;;;;;4942707;28;8793;-64
2022/06/18 09:46:36;;;;;;;;;14.60;12.40;;;;;;;;4956595;29;8778;-70
2022/06/18 09:49:03;;;;;;;;;13.60;12.60;;;;;;;;4943043;29;8798;-73
2022/06/18 09:51:37;;;;;;;;;15.40;12.00;;;;;;;;4940727;29;8785;-71
2022/06/18 09:54:05;;;;;;;;;15.00;13.40;;;;;;;;4956602;28;8813;-71
2022/06/18 09:56:36;;;;;;;;;17.80;13.60;;;;;;;;4957004;29;9099;-72
2022/06/18 09:59:05;;;;;;;;;12.60;10.40;;;;;;;;4957285;28;8856;-67
2022/06/18 10:01:36;;;;;;;;;15.40;14.00;;;;;;;;4956233;28;9046;-72
2022/06/18 10:06:57;;;;;;;;;14.20;12.60;;;;;;;;4955183;29;8786;-67
2022/06/18 10:09:43;;;;;;;;;22.60;16.60;;;;;;;;4955663;28;8817;-71
2022/06/18 10:12:15;;;;;;;;;17.60;15.20;;;;;;;;4956456;28;8868;-73
2022/06/18 10:14:42;;;;;;;;;15.60;14.20;;;;;;;;4956978;28;8793;-68
2022/06/18 10:17:12;;;;;;;;;12.40;10.40;;;;;;;;4942615;29;8793;-54
2022/06/18 10:19:43;;;;;;;;;15.80;15.00;;;;;;;;4956675;28;8781;-70
2022/06/18 10:22:33;;;;;;;;;19.20;14.80;;;;;;;;4956877;28;8840;-72
2022/06/18 10:25:11;;;;;;;;;21.20;16.60;;;;;;;;4923845;29;8741;-72
2022/06/18 10:27:41;;;;;;;;;15.40;13.80;;;;;;;;4940273;29;8769;-63
2022/06/18 10:30:08;;;;;;;;;13.80;12.20;;;;;;;;4936992;29;8784;-68
2022/06/18 10:32:39;;;;;;;;;14.00;13.20;;;;;;;;4936805;29;8784;-71
2022/06/18 10:35:21;;;;;;;;;18.60;14.00;;;;;;;;4936969;29;8792;-72
2022/06/18 10:37:53;;;;;;;;;17.80;16.40;;;;;;;;4923810;28;8780;-63
2022/06/18 10:40:23;;;;;;;;;16.20;15.20;;;;;;;;4961086;28;8782;-72
2022/06/18 10:42:50;;;;;;;;;19.00;16.40;;;;;;;;4960937;28;8817;-73
2022/06/18 10:45:35;;;;;;;;;19.40;17.20;;;;;;;;4966712;28;8791;-70
2022/06/18 10:48:02;;;;;;;;;15.00;12.00;;;;;;;;4979340;28;8787;-67
2022/06/18 10:50:29;;;;;;;;;19.00;14.00;;;;;;;;4978683;28;8811;-70
2022/06/18 10:53:02;;;;;;;;;12.80;11.20;;;;;;;;4978671;28;8751;-72
2022/06/18 10:55:29;;;;;;;;;19.00;15.60;;;;;;;;4962143;28;8775;-68
2022/06/18 10:58:06;;;;;;;;;18.20;15.60;;;;;;;;4980418;28;8756;-72
2022/06/18 11:00:32;;;;;;;;;13.80;12.60;;;;;;;;4978238;28;8787;-65
2022/06/18 11:03:00;;;;;;;;;16.60;15.00;;;;;;;;4962317;28;9445;-72
2022/06/18 11:05:30;;;;;;;;;15.60;15.20;;;;;;;;4962258;28;8872;-70
2022/06/18 11:08:00;;;;;;;;;18.80;16.80;;;;;;;;4962473;28;8785;-69
2022/06/18 11:10:34;;;;;;;;;18.20;14.60;;;;;;;;4979647;28;8783;-58
2022/06/18 11:13:01;;;;;;;;;12.20;10.40;;;;;;;;4963313;28;8787;-72
2022/06/18 11:15:35;;;;;;;;;11.00;6.00;;;;;;;;4979060;28;8776;-70
2022/06/18 11:18:14;;;;;;;;;13.60;12.40;;;;;;;;4961756;28;8813;-59
2022/06/18 11:20:41;;;;;;;;;15.20;14.00;;;;;;;;4961275;28;8901;-71
2022/06/18 11:23:16;;;;;;;;;17.00;15.00;;;;;;;;4979019;28;8810;-59
2022/06/18 11:25:42;;;;;;;;;14.60;14.00;;;;;;;;4977755;28;8766;-72
2022/06/18 11:28:28;;;;;;;;;13.60;12.80;;;;;;;;4979845;28;9381;-72
2022/06/18 11:30:55;;;;;;;;;19.00;15.00;;;;;;;;4979405;28;8744;-69
2022/06/18 11:33:24;;;;;;;;;13.40;13.20;;;;;;;;4978478;28;9440;-72
2022/06/18 11:35:51;;;;;;;;;20.00;17.20;;;;;;;;4978772;28;8803;-60
2022/06/18 11:38:28;;;;;;;;;17.00;14.00;;;;;;;;4978332;28;8807;-67
2022/06/18 11:40:55;;;;;;;;;21.40;16.80;;;;;;;;4961621;28;8872;-67
2022/06/18 11:43:48;;;;;;;;;22.60;15.40;;;;;;;;4979498;28;8783;-68
2022/06/18 11:46:17;;;;;;;;;14.20;12.60;;;;;;;;4937705;28;8770;-73
2022/06/18 11:49:03;;;;;;;;;15.80;12.60;;;;;;;;4942227;28;8935;-69
2022/06/18 11:51:41;;;;;;;;;19.75;16.50;;;;;;;;4959177;28;8774;-67
2022/06/18 11:54:15;;;;;;;;;11.00;9.20;;;;;;;;4959315;28;8797;-69
2022/06/18 11:57:00;;;;;;;;;16.40;14.80;;;;;;;;4941987;28;8797;-70
2022/06/18 11:59:34;;;;;;;;;17.00;13.80;;;;;;;;4958984;28;8762;-71
2022/06/18 12:02:17;;;;;;;;;14.00;11.80;;;;;;;;4934871;28;8801;-69
2022/06/18 12:04:57;;;;;;;;;15.60;13.80;;;;;;;;4941991;28;8786;-71
2022/06/18 12:07:56;;;;;;;;;15.80;14.20;;;;;;;;4942546;28;8778;-63
2022/06/18 12:10:30;;;;;;;;;14.80;13.80;;;;;;;;4927549;28;8759;-70
2022/06/18 12:13:23;;;;;;;;;16.20;12.80;;;;;;;;4959802;28;8849;-69
2022/06/18 12:16:09;;;;;;;;;16.20;15.40;;;;;;;;4967612;28;8760;-71
2022/06/18 12:18:48;;;;;;;;;17.00;14.20;;;;;;;;4939345;28;8803;-70
2022/06/18 12:21:15;;;;;;;;;14.20;14.20;;;;;;;;4978663;28;8876;-71
2022/06/18 12:23:44;;;;;;;;;17.80;15.20;;;;;;;;4978459;28;9458;-70
2022/06/18 12:26:14;;;;;;;;;18.80;16.20;;;;;;;;4978986;28;8794;-69
2022/06/18 12:28:47;;;;;;;;;24.40;17.80;;;;;;;;4977345;28;8771;-72
2022/06/18 12:31:15;;;;;;;;;20.60;16.80;;;;;;;;4977858;28;8786;-69
2022/06/18 12:33:57;;;;;;;;;22.00;16.60;;;;;;;;4978666;28;8784;-72
2022/06/18 12:36:39;;;;;;;;;19.00;16.80;;;;;;;;4978699;28;8796;-69
2022/06/18 12:39:12;;;;;;;;;19.80;16.20;;;;;;;;4955327;28;8825;-70
2022/06/18 12:41:40;;;;;;;;;21.60;19.00;;;;;;;;4955725;28;8856;-68
2022/06/18 12:44:25;;;;;;;;;18.60;18.40;;;;;;;;4939799;29;8814;-71
2022/06/18 12:46:57;;;;;;;;;18.60;15.40;;;;;;;;4940811;28;8817;-72
2022/06/18 12:49:36;;;;;;;;;15.25;15.25;;;;;;;;4955604;29;8943;-68
2022/06/18 12:52:12;;;;;;;;;24.00;19.40;;;;;;;;4941070;28;8773;-72
2022/06/18 12:54:42;;;;;;;;;26.25;26.00;;;;;;;;4938701;29;8814;-70
2022/06/18 12:57:27;;;;;;;;;31.75;27.00;;;;;;;;4939999;28;8782;-70
2022/06/18 13:00:02;;;;;;;;;31.25;27.50;;;;;;;;4940166;29;8766;-66
2022/06/18 13:02:37;;;;;;;;;30.50;23.00;;;;;;;;4953852;28;8809;-71
2022/06/18 13:05:03;;;;;;;;;28.75;25.50;;;;;;;;4938086;29;8778;-72
2022/06/18 13:07:30;;;;;;;;;23.75;21.50;;;;;;;;4939289;28;8753;-70
2022/06/18 13:10:04;;;;;;;;;22.25;20.00;;;;;;;;4938724;29;8793;-64
2022/06/18 13:12:38;;;;;;;;;18.75;17.50;;;;;;;;4955312;28;8797;-72
2022/06/18 13:15:27;;;;;;;;;28.25;24.00;;;;;;;;4957424;29;8913;-72
2022/06/18 13:17:59;;;;;;;;;32.75;30.00;;;;;;;;4942749;28;8864;-71
2022/06/18 13:20:34;;;;;;;;;30.00;26.00;;;;;;;;4957381;29;8856;-62
2022/06/18 13:28:10;;;;;;;;;29.25;26.25;;;;;;;;4941756;28;8813;-71
2022/06/18 13:28:32;;;;;;;;;35.25;30.25;;;;;;;;4942115;29;8757;-68
2022/06/18 13:30:59;;;;;;;;;40.25;32.25;;;;;;;;4943168;29;8758;-72
2022/06/18 13:33:26;;;;;;;;;36.50;31.50;;;;;;;;4942038;29;9446;-66
2022/06/18 13:35:52;;;;;;;;;24.25;24.25;;;;;;;;4942648;28;8785;-70
2022/06/18 13:38:22;;;;;;;;;33.25;29.00;;;;;;;;4941016;29;8785;-67
2022/06/18 13:41:11;;;;;;;;;34.75;28.50;;;;;;;;4942504;28;8761;-69
2022/06/18 13:43:54;;;;;;;;;38.00;32.00;;;;;;;;4942170;28;8848;-72
2022/06/18 13:46:27;;;;;;;;;33.00;29.75;;;;;;;;4942601;28;8781;-65
2022/06/18 13:49:12;;;;;;;;;30.00;28.50;;;;;;;;4944031;29;8831;-70
2022/06/18 13:51:39;;;;;;;;;30.00;25.75;;;;;;;;4943199;28;8798;-66
2022/06/18 13:54:10;;;;;;;;;30.25;27.00;;;;;;;;4943400;28;9497;-71
2022/06/18 13:56:37;;;;;;;;;29.75;28.00;;;;;;;;4943408;28;8820;-69
2022/06/18 13:59:04;;;;;;;;;32.00;26.25;;;;;;;;4958045;28;8797;-68
2022/06/18 14:01:32;;;;;;;;;29.25;25.75;;;;;;;;4957330;28;9501;-69
2022/06/18 14:04:01;;;;;;;;;29.25;27.25;;;;;;;;4943954;29;8762;-64
2022/06/18 14:06:27;;;;;;;;;23.75;23.25;;;;;;;;4942234;28;8789;-71
2022/06/18 14:09:14;;;;;;;;;29.50;27.25;;;;;;;;4941434;29;8797;-67
2022/06/18 14:11:45;;;;;;;;;29.60;28.80;;;;;;;;4942784;28;8781;-70
2022/06/18 14:14:12;;;;;;;;;28.25;26.50;;;;;;;;4943484;28;8778;-70
2022/06/18 14:16:41;;;;;;;;;32.75;27.25;;;;;;;;4941955;28;8836;-66
2022/06/18 14:19:13;;;;;;;;;29.25;25.50;;;;;;;;4943661;29;8773;-72
2022/06/18 14:21:40;;;;;;;;;31.75;27.50;;;;;;;;4957338;28;8844;-68
2022/06/18 14:24:07;;;;;;;;;29.00;26.00;;;;;;;;4957464;28;8817;-68
2022/06/18 14:26:39;;;;;;;;;34.25;27.00;;;;;;;;4957585;28;8781;-72
2022/06/18 14:29:06;;;;;;;;;29.25;25.00;;;;;;;;4942716;28;8784;-72
2022/06/18 14:31:35;;;;;;;;;27.00;27.00;;;;;;;;4941384;28;8789;-69
2022/06/18 14:34:11;;;;;;;;;35.00;28.00;;;;;;;;4941484;29;8811;-73
2022/06/18 14:36:40;;;;;;;;;28.75;28.00;;;;;;;;4940746;28;8805;-69
2022/06/18 14:39:14;;;;;;;;;31.75;30.00;;;;;;;;4948122;29;8809;-72
2022/06/18 14:41:40;;;;;;;;;37.00;31.50;;;;;;;;4956765;28;8818;-70
2022/06/18 14:44:23;;;;;;;;;18.75;16.75;;;;;;;;4957326;28;8782;-71
2022/06/18 14:46:50;;;;;;;;;39.50;30.25;;;;;;;;4956620;28;8804;-72
2022/06/18 14:49:35;;;;;;;;;36.50;31.50;;;;;;;;4941122;29;8821;-63
2022/06/18 14:52:20;;;;;;;;;34.75;30.00;;;;;;;;4941358;29;9474;-71
2022/06/18 14:54:47;;;;;;;;;29.00;29.00;;;;;;;;4941335;29;9501;-73
2022/06/18 14:57:32;;;;;;;;;36.75;31.00;;;;;;;;4939986;29;8786;-71
2022/06/18 15:00:17;;;;;;;;;32.00;27.00;;;;;;;;4941318;29;8861;-68
2022/06/18 15:03:03;;;;;;;;;38.00;30.00;;;;;;;;4941087;29;8812;-68
2022/06/18 15:05:31;;;;;;;;;30.75;25.75;;;;;;;;4940884;28;8781;-72
2022/06/18 15:08:08;;;;;;;;;34.25;30.25;;;;;;;;4941259;29;8769;-72
2022/06/18 15:10:34;;;;;;;;;34.25;30.75;;;;;;;;4939364;28;8970;-68